createdAt,value
2022-11-28T00:00:01.367Z,0
2022-11-28T00:01:00.839Z,0
2022-11-28T00:02:01.114Z,0
2022-11-28T00:03:01.834Z,0
2022-11-28T00:04:01.871Z,0
2022-11-28T00:05:01.502Z,0
2022-11-28T00:06:02.003Z,0
2022-11-28T00:07:02.465Z,0
2022-11-28T00:08:01.497Z,0
2022-11-28T00:09:01.072Z,0
2022-11-28T00:10:00.426Z,0
2022-11-28T00:11:00.663Z,0
2022-11-28T00:12:00.890Z,0
2022-11-28T00:13:00.870Z,0
2022-11-28T00:14:00.371Z,0
2022-11-28T00:15:00.581Z,0
2022-11-28T00:16:00.562Z,0
2022-11-28T00:17:00.542Z,0
2022-11-28T00:18:01.203Z,0
2022-11-28T00:19:00.780Z,0
2022-11-28T00:20:00.223Z,0
2022-11-28T00:21:00.769Z,0
2022-11-28T00:22:00.974Z,0
2022-11-28T00:23:01.751Z,0
2022-11-28T00:24:01.475Z,0
2022-11-28T00:25:01.057Z,0
2022-11-28T00:26:00.658Z,0
2022-11-28T00:27:00.899Z,0
2022-11-28T00:28:00.893Z,0
2022-11-28T00:29:01.110Z,0
2022-11-28T00:30:01.359Z,0
2022-11-28T00:31:00.566Z,0
2022-11-28T00:32:01.671Z,0
2022-11-28T00:33:01.043Z,0
2022-11-28T00:34:00.780Z,0
2022-11-28T00:35:00.852Z,0
2022-11-28T00:36:01.004Z,0
2022-11-28T00:37:00.714Z,0
2022-11-28T00:38:00.928Z,0
2022-11-28T00:39:01.417Z,0
2022-11-28T00:40:00.658Z,0
2022-11-28T00:41:01.034Z,0
2022-11-28T00:42:01.150Z,0
2022-11-28T00:43:00.339Z,0
2022-11-28T00:44:01.143Z,0
2022-11-28T00:45:00.661Z,0
2022-11-28T00:46:01.294Z,0
2022-11-28T00:47:00.771Z,0
2022-11-28T00:48:06.513Z,0
2022-11-28T00:49:00.749Z,0
2022-11-28T00:50:00.720Z,0
2022-11-28T00:51:00.688Z,0
2022-11-28T00:52:00.663Z,0
2022-11-28T00:53:00.383Z,0
2022-11-28T00:54:00.881Z,0
2022-11-28T00:55:01.117Z,0
2022-11-28T00:56:00.847Z,0
2022-11-28T00:57:00.689Z,0
2022-11-28T00:58:00.812Z,0
2022-11-28T00:59:00.294Z,0
2022-11-28T01:00:00.296Z,0
2022-11-28T01:01:01.308Z,0
2022-11-28T01:02:00.337Z,0
2022-11-28T01:03:00.308Z,0
2022-11-28T01:04:00.718Z,0
2022-11-28T01:05:00.180Z,0
2022-11-28T01:05:59.903Z,0
2022-11-28T01:07:00.655Z,0
2022-11-28T01:08:00.463Z,0
2022-11-28T01:09:00.607Z,0
2022-11-28T01:10:00.831Z,0
2022-11-28T01:11:00.304Z,0
2022-11-28T01:12:00.303Z,0
2022-11-28T01:13:00.651Z,0
2022-11-28T01:14:00.534Z,0
2022-11-28T01:14:59.999Z,0
2022-11-28T01:16:00.401Z,0
2022-11-28T01:17:00.210Z,0
2022-11-28T01:17:59.931Z,0
2022-11-28T01:19:00.167Z,0
2022-11-28T01:19:59.545Z,0
2022-11-28T01:20:59.627Z,0
2022-11-28T01:22:00.365Z,0
2022-11-28T01:22:59.829Z,0
2022-11-28T01:24:00.077Z,0
2022-11-28T01:24:59.804Z,0
2022-11-28T01:26:00.009Z,0
2022-11-28T01:27:00.255Z,0
2022-11-28T01:27:59.758Z,0
2022-11-28T01:29:00.182Z,0
2022-11-28T01:29:59.705Z,0
2022-11-28T01:30:59.433Z,0
2022-11-28T01:32:00.222Z,0
2022-11-28T01:32:59.664Z,0
2022-11-28T01:34:31.195Z,0
2022-11-28T01:35:00.138Z,0
2022-11-28T01:35:59.638Z,0
2022-11-28T01:36:59.839Z,0
2022-11-28T01:38:00.086Z,0
2022-11-28T01:38:59.813Z,0
2022-11-28T01:39:59.000Z,0
2022-11-28T01:40:59.243Z,0
2022-11-28T01:42:00.228Z,0
2022-11-28T01:43:00.219Z,0
2022-11-28T01:43:59.971Z,0
2022-11-28T01:45:00.048Z,0
2022-11-28T01:45:59.659Z,0
2022-11-28T01:47:00.247Z,0
2022-11-28T01:47:59.630Z,0
2022-11-28T01:48:59.612Z,0
2022-11-28T01:49:59.977Z,0
2022-11-28T01:50:59.054Z,0
2022-11-28T01:51:59.565Z,0
2022-11-28T01:52:59.520Z,0
2022-11-28T01:53:59.015Z,0
2022-11-28T01:54:59.482Z,0
2022-11-28T01:55:59.234Z,0
2022-11-28T01:56:59.261Z,0
2022-11-28T01:58:05.487Z,0
2022-11-28T01:59:00.036Z,0
2022-11-28T01:59:59.147Z,0
2022-11-28T02:00:59.546Z,0
2022-11-28T02:01:59.416Z,0
2022-11-28T02:02:59.342Z,0
2022-11-28T02:03:59.500Z,0
2022-11-28T02:04:59.056Z,0
2022-11-28T02:05:59.430Z,0
2022-11-28T02:06:59.206Z,0
2022-11-28T02:07:59.944Z,0
2022-11-28T02:08:59.536Z,0
2022-11-28T02:09:59.214Z,0
2022-11-28T02:10:59.185Z,0
2022-11-28T02:11:58.677Z,0
2022-11-28T02:12:58.910Z,0
2022-11-28T02:13:59.268Z,0
2022-11-28T02:14:59.763Z,0
2022-11-28T02:15:58.642Z,0
2022-11-28T02:16:58.948Z,0
2022-11-28T02:17:59.005Z,0
2022-11-28T02:19:00.356Z,0
2022-11-28T02:19:58.534Z,0
2022-11-28T02:20:58.764Z,0
2022-11-28T02:21:59.005Z,0
2022-11-28T02:22:58.214Z,0
2022-11-28T02:23:58.697Z,0
2022-11-28T02:24:59.250Z,0
2022-11-28T02:25:58.860Z,0
2022-11-28T02:26:58.900Z,0
2022-11-28T02:27:59.145Z,0
2022-11-28T02:28:58.867Z,0
2022-11-28T02:29:58.957Z,0
2022-11-28T02:30:59.665Z,0
2022-11-28T02:31:59.179Z,0
2022-11-28T02:32:58.912Z,0
2022-11-28T02:33:58.017Z,0
2022-11-28T02:34:59.743Z,0
2022-11-28T02:35:58.333Z,0
2022-11-28T02:36:58.978Z,0
2022-11-28T02:37:58.953Z,0
2022-11-28T02:38:58.697Z,0
2022-11-28T02:39:58.666Z,0
2022-11-28T02:40:58.134Z,0
2022-11-28T02:41:58.367Z,0
2022-11-28T02:42:58.347Z,0
2022-11-28T02:44:04.336Z,0
2022-11-28T02:44:58.318Z,0
2022-11-28T02:45:58.415Z,0
2022-11-28T02:47:00.300Z,0
2022-11-28T02:47:59.104Z,0
2022-11-28T02:48:59.722Z,0
2022-11-28T02:49:59.332Z,0
2022-11-28T02:50:59.306Z,0
2022-11-28T02:51:59.048Z,0
2022-11-28T02:52:59.265Z,0
2022-11-28T02:53:59.275Z,0
2022-11-28T02:54:59.238Z,0
2022-11-28T02:55:58.954Z,0
2022-11-28T02:56:59.205Z,0
2022-11-28T02:57:59.454Z,0
2022-11-28T02:58:59.192Z,0
2022-11-28T02:59:58.898Z,0
2022-11-28T03:00:59.412Z,0
2022-11-28T03:01:59.369Z,0
2022-11-28T03:02:59.708Z,0
2022-11-28T03:03:59.318Z,0
2022-11-28T03:04:58.919Z,0
2022-11-28T03:05:59.034Z,0
2022-11-28T03:06:59.322Z,0
2022-11-28T03:07:59.625Z,0
2022-11-28T03:08:58.983Z,0
2022-11-28T03:09:58.964Z,0
2022-11-28T03:10:58.690Z,0
2022-11-28T03:11:58.931Z,0
2022-11-28T03:12:58.401Z,0
2022-11-28T03:13:58.116Z,0
2022-11-28T03:14:58.884Z,0
2022-11-28T03:15:59.087Z,0
2022-11-28T03:16:59.101Z,0
2022-11-28T03:17:58.690Z,0
2022-11-28T03:18:59.457Z,0
2022-11-28T03:19:59.034Z,0
2022-11-28T03:20:58.883Z,0
2022-11-28T03:21:58.236Z,0
2022-11-28T03:22:58.720Z,0
2022-11-28T03:23:58.721Z,0
2022-11-28T03:24:58.178Z,0
2022-11-28T03:25:58.669Z,0
2022-11-28T03:26:58.391Z,0
2022-11-28T03:27:58.368Z,0
2022-11-28T03:28:58.371Z,0
2022-11-28T03:29:58.596Z,0
2022-11-28T03:30:57.828Z,0
2022-11-28T03:31:59.191Z,0
2022-11-28T03:32:58.531Z,0
2022-11-28T03:49:55.417Z,0
2022-11-28T03:50:54.276Z,0
2022-11-28T03:51:54.257Z,0
2022-11-28T03:52:54.232Z,0
2022-11-28T03:53:54.479Z,0
2022-11-28T03:54:54.347Z,0
2022-11-28T03:55:55.246Z,0
2022-11-28T03:56:54.655Z,0
2022-11-28T03:57:54.399Z,0
2022-11-28T03:58:54.448Z,0
2022-11-28T03:59:54.091Z,0
2022-11-28T04:00:54.443Z,0
2022-11-28T04:01:54.061Z,0
2022-11-28T04:02:54.125Z,0
2022-11-28T04:03:54.272Z,0
2022-11-28T04:04:54.879Z,0
2022-11-28T04:05:55.099Z,0
2022-11-28T04:06:54.469Z,0
2022-11-28T04:07:54.659Z,0
2022-11-28T04:08:53.412Z,0
2022-11-28T04:09:54.408Z,0
2022-11-28T04:10:53.902Z,0
2022-11-28T04:11:54.388Z,0
2022-11-28T04:12:54.099Z,0
2022-11-28T04:13:53.855Z,0
2022-11-28T04:14:53.895Z,0
2022-11-28T04:15:54.129Z,0
2022-11-28T04:17:01.108Z,0
2022-11-28T04:17:54.022Z,0
2022-11-28T04:18:53.736Z,0
2022-11-28T04:19:53.978Z,0
2022-11-28T04:20:53.981Z,0
2022-11-28T04:21:54.815Z,0
2022-11-28T04:22:53.946Z,0
2022-11-28T04:23:53.928Z,0
2022-11-28T04:24:54.292Z,0
2022-11-28T04:25:53.620Z,0
2022-11-28T04:26:53.335Z,0
2022-11-28T04:27:53.816Z,0
2022-11-28T04:28:53.301Z,0
2022-11-28T04:29:53.814Z,0
2022-11-28T04:30:53.779Z,0
2022-11-28T04:31:54.251Z,0
2022-11-28T04:32:53.483Z,0
2022-11-28T04:33:53.973Z,0
2022-11-28T04:34:54.533Z,0
2022-11-28T04:35:53.679Z,0
2022-11-28T04:36:53.652Z,0
2022-11-28T04:37:54.498Z,0
2022-11-28T04:38:53.368Z,0
2022-11-28T04:39:53.864Z,0
2022-11-28T04:40:53.329Z,0
2022-11-28T04:41:53.821Z,0
2022-11-28T04:42:59.779Z,0
2022-11-28T04:43:53.281Z,0
2022-11-28T04:44:54.713Z,0
2022-11-28T04:45:54.535Z,0
2022-11-28T04:46:53.870Z,0
2022-11-28T04:47:54.354Z,0
2022-11-28T04:48:54.327Z,0
2022-11-28T04:49:54.054Z,0
2022-11-28T04:50:54.305Z,0
2022-11-28T04:51:54.016Z,0
2022-11-28T04:52:54.260Z,0
2022-11-28T04:53:55.083Z,0
2022-11-28T04:54:54.297Z,0
2022-11-28T04:55:54.205Z,0
2022-11-28T04:56:54.431Z,0
2022-11-28T04:58:00.203Z,0
2022-11-28T04:58:53.896Z,0
2022-11-28T04:59:53.878Z,0
2022-11-28T05:00:54.827Z,0
2022-11-28T05:01:54.618Z,0
2022-11-28T05:02:53.827Z,0
2022-11-28T05:03:53.801Z,0
2022-11-28T05:04:54.665Z,0
2022-11-28T05:05:54.630Z,0
2022-11-28T05:06:54.888Z,0
2022-11-28T05:07:55.167Z,0
2022-11-28T05:08:54.549Z,0
2022-11-28T05:09:55.658Z,0
2022-11-28T05:10:54.270Z,0
2022-11-28T05:11:54.511Z,0
2022-11-28T05:12:54.735Z,0
2022-11-28T05:13:54.723Z,0
2022-11-28T05:14:54.200Z,0
2022-11-28T05:15:54.978Z,0
2022-11-28T05:16:54.986Z,0
2022-11-28T05:17:54.767Z,0
2022-11-28T05:18:54.645Z,0
2022-11-28T05:19:54.612Z,0
2022-11-28T05:20:54.628Z,0
2022-11-28T05:21:54.855Z,0
2022-11-28T05:22:54.727Z,0
2022-11-28T05:23:54.293Z,0
2022-11-28T05:24:55.225Z,0
2022-11-28T05:25:55.250Z,0
2022-11-28T05:26:54.242Z,0
2022-11-28T05:27:54.474Z,0
2022-11-28T05:28:54.225Z,0
2022-11-28T05:30:01.232Z,0
2022-11-28T05:30:53.657Z,0
2022-11-28T05:31:54.984Z,0
2022-11-28T05:32:54.135Z,0
2022-11-28T05:33:54.376Z,0
2022-11-28T05:34:53.900Z,0
2022-11-28T05:35:54.614Z,0
2022-11-28T05:36:54.326Z,0
2022-11-28T05:37:54.092Z,0
2022-11-28T05:38:54.020Z,0
2022-11-28T05:39:54.726Z,0
2022-11-28T05:40:54.513Z,0
2022-11-28T05:41:55.133Z,0
2022-11-28T05:42:54.187Z,0
2022-11-28T05:43:54.444Z,0
2022-11-28T05:44:54.161Z,0
2022-11-28T05:45:54.458Z,0
2022-11-28T05:46:53.608Z,0
2022-11-28T05:47:53.619Z,0
2022-11-28T05:48:53.596Z,0
2022-11-28T05:49:54.836Z,0
2022-11-28T05:50:53.796Z,0
2022-11-28T05:51:54.025Z,0
2022-11-28T05:52:54.025Z,0
2022-11-28T05:53:54.017Z,0
2022-11-28T05:54:53.747Z,0
2022-11-28T05:55:54.274Z,0
2022-11-28T05:56:53.944Z,0
2022-11-28T05:57:54.866Z,0
2022-11-28T05:58:53.667Z,0
2022-11-28T05:59:54.581Z,0
2022-11-28T06:00:53.371Z,0
2022-11-28T06:01:53.876Z,0
2022-11-28T06:02:57.121Z,0
2022-11-28T06:03:53.323Z,0
2022-11-28T06:04:54.055Z,0
2022-11-28T06:05:53.934Z,0
2022-11-28T06:06:53.523Z,0
2022-11-28T06:07:53.873Z,0
2022-11-28T06:08:53.485Z,0
2022-11-28T06:09:53.488Z,0
2022-11-28T06:10:53.686Z,0
2022-11-28T06:11:53.944Z,0
2022-11-28T06:12:53.670Z,0
2022-11-28T06:13:54.497Z,0
2022-11-28T06:14:53.622Z,0
2022-11-28T06:15:53.634Z,0
2022-11-28T06:16:54.168Z,0
2022-11-28T06:17:53.830Z,0
2022-11-28T06:18:53.920Z,0
2022-11-28T06:19:54.072Z,0
2022-11-28T06:20:53.779Z,0
2022-11-28T06:21:53.492Z,0
2022-11-28T06:22:53.734Z,0
2022-11-28T06:23:53.213Z,0
2022-11-28T06:24:52.948Z,0
2022-11-28T06:25:52.929Z,0
2022-11-28T06:26:53.407Z,0
2022-11-28T06:27:53.395Z,0
2022-11-28T06:28:53.131Z,0
2022-11-28T06:29:54.640Z,0
2022-11-28T06:30:53.342Z,0
2022-11-28T06:31:53.752Z,0
2022-11-28T06:32:53.312Z,0
2022-11-28T06:33:53.303Z,0
2022-11-28T06:34:53.269Z,0
2022-11-28T06:35:53.000Z,0
2022-11-28T06:36:53.491Z,0
2022-11-28T06:37:53.293Z,0
2022-11-28T06:38:53.459Z,0
2022-11-28T06:39:53.351Z,0
2022-11-28T06:40:53.162Z,0
2022-11-28T06:41:53.160Z,0
2022-11-28T06:42:53.390Z,0
2022-11-28T06:43:53.105Z,0
2022-11-28T06:44:52.853Z,5
2022-11-28T06:45:54.230Z,5
2022-11-28T06:46:53.058Z,5
2022-11-28T06:47:52.562Z,5
2022-11-28T06:48:52.776Z,5
2022-11-28T06:49:53.051Z,5
2022-11-28T06:50:52.748Z,5
2022-11-28T06:51:52.713Z,10
2022-11-28T06:52:52.190Z,10
2022-11-28T06:53:53.176Z,10
2022-11-28T06:54:52.399Z,10
2022-11-28T06:55:52.905Z,10
2022-11-28T06:56:52.880Z,10
2022-11-28T06:57:52.988Z,15
2022-11-28T06:58:52.870Z,15
2022-11-28T06:59:52.812Z,15
2022-11-28T07:00:52.936Z,15
2022-11-28T07:01:54.160Z,20
2022-11-28T07:02:53.023Z,20
2022-11-28T07:03:52.489Z,20
2022-11-28T07:04:52.483Z,25
2022-11-28T07:05:52.981Z,25
2022-11-28T07:06:51.934Z,25
2022-11-28T07:08:03.727Z,25
2022-11-28T07:08:52.659Z,30
2022-11-28T07:09:53.098Z,30
2022-11-28T07:10:52.622Z,30
2022-11-28T07:11:52.615Z,30
2022-11-28T07:12:51.836Z,35
2022-11-28T07:13:52.843Z,35
2022-11-28T07:14:52.549Z,35
2022-11-28T07:15:52.300Z,40
2022-11-28T07:16:52.613Z,40
2022-11-28T07:17:53.272Z,40
2022-11-28T07:18:52.232Z,40
2022-11-28T07:20:00.125Z,40
2022-11-28T07:20:52.469Z,45
2022-11-28T07:21:52.437Z,45
2022-11-28T07:22:52.419Z,45
2022-11-28T07:23:52.160Z,45
2022-11-28T07:24:52.391Z,45
2022-11-28T07:25:52.611Z,45
2022-11-28T07:26:52.342Z,45
2022-11-28T07:27:52.331Z,45
2022-11-28T07:28:52.069Z,45
2022-11-28T07:29:52.294Z,45
2022-11-28T07:30:52.036Z,45
2022-11-28T07:31:52.805Z,45
2022-11-28T07:32:52.023Z,45
2022-11-28T07:33:52.996Z,40
2022-11-28T07:34:58.019Z,40
2022-11-28T07:35:52.440Z,40
2022-11-28T07:36:52.437Z,40
2022-11-28T07:37:52.161Z,40
2022-11-28T07:38:51.881Z,40
2022-11-28T07:39:52.295Z,40
2022-11-28T07:40:52.366Z,40
2022-11-28T07:41:51.848Z,40
2022-11-28T07:42:51.834Z,40
2022-11-28T07:43:51.809Z,40
2022-11-28T07:44:51.773Z,40
2022-11-28T07:46:10.232Z,45
2022-11-28T07:46:52.612Z,45
2022-11-28T07:47:52.258Z,45
2022-11-28T07:48:51.986Z,45
2022-11-28T07:49:52.673Z,45
2022-11-28T07:50:51.944Z,50
2022-11-28T07:51:51.675Z,50
2022-11-28T07:52:52.174Z,50
2022-11-28T07:53:51.939Z,50
2022-11-28T07:54:51.602Z,50
2022-11-28T07:55:51.608Z,50
2022-11-28T07:57:21.732Z,50
2022-11-28T07:57:52.669Z,50
2022-11-28T07:58:51.807Z,50
2022-11-28T07:59:52.758Z,55
2022-11-28T08:00:52.471Z,55
2022-11-28T08:01:51.630Z,55
2022-11-28T08:02:51.885Z,55
2022-11-28T08:03:51.750Z,55
2022-11-28T08:05:02.928Z,55
2022-11-28T08:05:51.737Z,55
2022-11-28T08:06:51.144Z,55
2022-11-28T08:07:51.943Z,55
2022-11-28T08:08:51.116Z,55
2022-11-28T08:09:52.195Z,60
2022-11-28T08:10:51.588Z,60
2022-11-28T08:11:51.844Z,60
2022-11-28T08:12:51.297Z,60
2022-11-28T08:13:51.905Z,65
2022-11-28T08:14:52.485Z,65
2022-11-28T08:15:51.264Z,70
2022-11-28T08:16:52.011Z,70
2022-11-28T08:17:51.480Z,75
2022-11-28T08:18:51.198Z,75
2022-11-28T08:19:51.673Z,80
2022-11-28T08:20:52.149Z,80
2022-11-28T08:21:51.423Z,85
2022-11-28T08:22:50.860Z,85
2022-11-28T08:23:51.352Z,85
2022-11-28T08:24:52.009Z,90
2022-11-28T08:25:51.317Z,90
2022-11-28T08:26:51.062Z,95
2022-11-28T08:27:50.774Z,95
2022-11-28T08:28:51.264Z,95
2022-11-28T08:29:58.644Z,95
2022-11-28T08:30:51.332Z,95
2022-11-28T08:31:51.473Z,90
2022-11-28T08:32:50.960Z,90
2022-11-28T08:33:50.949Z,90
2022-11-28T08:34:51.163Z,90
2022-11-28T08:35:51.155Z,90
2022-11-28T08:36:51.490Z,90
2022-11-28T08:37:51.291Z,90
2022-11-28T08:39:40.810Z,85
2022-11-28T08:39:51.764Z,85
2022-11-28T08:40:50.561Z,80
2022-11-28T08:41:50.815Z,80
2022-11-28T08:42:51.282Z,80
2022-11-28T08:43:51.261Z,75
2022-11-28T08:44:51.246Z,75
2022-11-28T08:45:51.566Z,75
2022-11-28T08:46:50.784Z,75
2022-11-28T08:47:50.952Z,70
2022-11-28T08:48:50.936Z,70
2022-11-28T08:49:52.182Z,70
2022-11-28T08:50:55.812Z,80
2022-11-28T08:51:50.358Z,80
2022-11-28T08:52:51.202Z,75
2022-11-28T08:54:03.825Z,75
2022-11-28T08:54:51.656Z,75
2022-11-28T08:55:51.353Z,80
2022-11-28T08:56:50.398Z,80
2022-11-28T08:57:50.529Z,80
2022-11-28T08:58:50.245Z,80
2022-11-28T08:59:51.320Z,85
2022-11-28T09:00:51.037Z,85
2022-11-28T09:01:50.935Z,85
2022-11-28T09:02:50.502Z,90
2022-11-28T09:03:51.089Z,90
2022-11-28T09:04:50.651Z,90
2022-11-28T09:05:50.655Z,90
2022-11-28T09:06:50.641Z,90
2022-11-28T09:07:50.918Z,90
2022-11-28T09:08:50.945Z,95
2022-11-28T09:09:51.700Z,95
2022-11-28T09:10:50.045Z,95
2022-11-28T09:11:50.303Z,100
2022-11-28T09:12:50.531Z,100
2022-11-28T09:13:50.271Z,105
2022-11-28T09:14:50.493Z,105
2022-11-28T09:15:56.071Z,110
2022-11-28T09:16:51.083Z,110
2022-11-28T09:17:50.699Z,110
2022-11-28T09:18:50.677Z,115
2022-11-28T09:19:51.362Z,110
2022-11-28T09:20:50.384Z,115
2022-11-28T09:21:57.461Z,115
2022-11-28T09:22:50.095Z,110
2022-11-28T09:23:50.268Z,110
2022-11-28T09:24:50.661Z,110
2022-11-28T09:25:50.586Z,115
2022-11-28T09:26:50.099Z,115
2022-11-28T09:27:49.750Z,115
2022-11-28T09:28:50.493Z,110
2022-11-28T09:29:51.110Z,110
2022-11-28T09:30:50.338Z,110
2022-11-28T09:31:56.002Z,110
2022-11-28T09:32:50.180Z,105
2022-11-28T09:33:49.920Z,105
2022-11-28T09:34:49.911Z,105
2022-11-28T09:35:49.881Z,105
2022-11-28T09:36:50.245Z,105
2022-11-28T09:37:50.092Z,110
2022-11-28T09:38:49.828Z,110
2022-11-28T09:40:22.951Z,115
2022-11-28T09:40:49.786Z,115
2022-11-28T09:41:50.046Z,115
2022-11-28T09:42:50.025Z,115
2022-11-28T09:43:55.869Z,115
2022-11-28T09:44:49.976Z,115
2022-11-28T09:45:50.004Z,120
2022-11-28T09:46:49.733Z,120
2022-11-28T09:47:49.462Z,120
2022-11-28T09:48:49.759Z,120
2022-11-28T09:49:52.127Z,120
2022-11-28T09:50:49.908Z,120
2022-11-28T09:51:49.857Z,120
2022-11-28T09:52:50.557Z,120
2022-11-28T09:53:49.820Z,120
2022-11-28T09:54:49.802Z,120
2022-11-28T09:55:49.961Z,120
2022-11-28T09:56:50.039Z,120
2022-11-28T09:57:49.541Z,120
2022-11-28T09:58:49.233Z,120
2022-11-28T09:59:50.690Z,120
2022-11-28T10:00:55.336Z,120
2022-11-28T10:01:49.175Z,120
2022-11-28T10:02:49.927Z,125
2022-11-28T10:03:49.751Z,125
2022-11-28T10:04:49.602Z,130
2022-11-28T10:05:49.613Z,130
2022-11-28T10:06:49.669Z,135
2022-11-28T10:07:55.236Z,135
2022-11-28T10:08:49.830Z,140
2022-11-28T10:09:50.342Z,140
2022-11-28T10:10:49.526Z,140
2022-11-28T10:11:49.875Z,135
2022-11-28T10:12:49.838Z,135
2022-11-28T10:14:15.727Z,130
2022-11-28T10:14:49.471Z,130
2022-11-28T10:15:49.205Z,125
2022-11-28T10:16:49.813Z,125
2022-11-28T10:17:49.803Z,120
2022-11-28T10:18:49.148Z,120
2022-11-28T10:20:04.573Z,120
2022-11-28T10:20:49.372Z,120
2022-11-28T10:21:49.591Z,120
2022-11-28T10:22:49.432Z,120
2022-11-28T10:23:49.333Z,125
2022-11-28T10:24:49.287Z,125
2022-11-28T10:25:49.549Z,130
2022-11-28T10:26:49.573Z,135
2022-11-28T10:27:49.359Z,135
2022-11-28T10:28:48.986Z,140
2022-11-28T10:29:50.247Z,140
2022-11-28T10:30:49.545Z,145
2022-11-28T10:31:48.680Z,145
2022-11-28T10:32:49.027Z,150
2022-11-28T10:33:48.889Z,155
2022-11-28T10:34:48.622Z,155
2022-11-28T10:35:48.654Z,160
2022-11-28T10:36:49.104Z,160
2022-11-28T10:37:49.183Z,165
2022-11-28T10:38:48.814Z,165
2022-11-28T10:39:50.145Z,165
2022-11-28T10:40:49.282Z,165
2022-11-28T10:41:49.009Z,160
2022-11-28T10:42:48.753Z,160
2022-11-28T10:43:49.146Z,160
2022-11-28T10:44:48.962Z,160
2022-11-28T10:45:49.305Z,155
2022-11-28T10:46:49.374Z,155
2022-11-28T10:47:49.168Z,150
2022-11-28T10:48:50.519Z,150
2022-11-28T10:49:49.868Z,150
2022-11-28T10:50:49.120Z,150
2022-11-28T10:51:48.851Z,150
2022-11-28T10:52:49.125Z,150
2022-11-28T10:53:49.067Z,145
2022-11-28T10:54:49.070Z,145
2022-11-28T10:55:48.534Z,145
2022-11-28T10:56:48.495Z,145
2022-11-28T10:57:48.236Z,145
2022-11-28T10:58:48.470Z,140
2022-11-28T10:59:50.141Z,140
2022-11-28T11:00:48.705Z,135
2022-11-28T11:01:55.206Z,135
2022-11-28T11:02:48.667Z,130
2022-11-28T11:03:48.409Z,125
2022-11-28T11:04:48.921Z,125
2022-11-28T11:05:48.361Z,120
2022-11-28T11:07:29.427Z,120
2022-11-28T11:07:48.635Z,120
2022-11-28T11:08:48.565Z,120
2022-11-28T11:09:50.022Z,120
2022-11-28T11:10:48.531Z,115
2022-11-28T11:11:48.277Z,115
2022-11-28T11:12:48.488Z,110
2022-11-28T11:13:48.235Z,110
2022-11-28T11:14:48.736Z,110
2022-11-28T11:15:49.170Z,105
2022-11-28T11:16:48.878Z,105
2022-11-28T11:17:48.694Z,105
2022-11-28T11:18:48.291Z,105
2022-11-28T11:19:49.461Z,105
2022-11-28T11:20:47.862Z,105
2022-11-28T11:21:47.847Z,100
2022-11-28T11:22:50.928Z,100
2022-11-28T11:23:48.074Z,100
2022-11-28T11:24:48.045Z,105
2022-11-28T11:25:48.024Z,105
2022-11-28T11:26:48.130Z,105
2022-11-28T11:27:48.257Z,105
2022-11-28T11:28:48.250Z,110
2022-11-28T11:29:54.197Z,110
2022-11-28T11:30:48.519Z,110
2022-11-28T11:31:48.729Z,110
2022-11-28T11:32:54.789Z,110
2022-11-28T11:33:48.173Z,110
2022-11-28T11:34:47.870Z,110
2022-11-28T11:35:47.906Z,110
2022-11-28T11:36:48.492Z,110
2022-11-28T11:37:48.099Z,110
2022-11-28T11:38:47.821Z,110
2022-11-28T11:39:48.944Z,110
2022-11-28T11:40:47.778Z,110
2022-11-28T11:41:48.003Z,115
2022-11-28T11:42:48.244Z,115
2022-11-28T11:43:47.723Z,115
2022-11-28T11:44:47.721Z,115
2022-11-28T11:45:55.050Z,115
2022-11-28T11:46:48.428Z,115
2022-11-28T11:47:48.083Z,115
2022-11-28T11:48:47.893Z,115
2022-11-28T11:49:49.627Z,115
2022-11-28T11:50:47.862Z,110
2022-11-28T11:51:48.487Z,110
2022-11-28T11:52:48.083Z,105
2022-11-28T11:53:47.552Z,105
2022-11-28T11:54:47.526Z,100
2022-11-28T11:55:47.262Z,100
2022-11-28T11:56:47.548Z,95
2022-11-28T11:57:47.725Z,90
2022-11-28T11:58:47.972Z,90
2022-11-28T11:59:48.793Z,85
2022-11-28T12:00:47.700Z,85
2022-11-28T12:01:47.678Z,80
2022-11-28T12:02:48.626Z,80
2022-11-28T12:03:48.703Z,80
2022-11-28T12:05:01.943Z,80
2022-11-28T12:06:22.297Z,80
2022-11-28T12:06:47.583Z,80
2022-11-28T12:07:47.794Z,80
2022-11-28T12:08:47.562Z,80
2022-11-28T12:09:48.905Z,80
2022-11-28T12:10:47.529Z,80
2022-11-28T12:11:54.544Z,80
2022-11-28T12:12:46.995Z,80
2022-11-28T12:13:47.477Z,80
2022-11-28T12:14:48.608Z,80
2022-11-28T12:15:47.347Z,80
2022-11-28T12:16:48.166Z,80
2022-11-28T12:29:25.804Z,100
2022-11-28T12:30:37.039Z,105
2022-11-28T12:31:35.912Z,105
2022-11-28T12:32:35.814Z,105
2022-11-28T12:33:35.287Z,105
2022-11-28T12:34:35.511Z,105
2022-11-28T12:35:35.768Z,110
2022-11-28T12:36:34.964Z,110
2022-11-28T12:38:16.938Z,110
2022-11-28T12:38:35.191Z,110
2022-11-28T12:39:35.429Z,115
2022-11-28T12:40:34.924Z,115
2022-11-28T12:41:41.499Z,115
2022-11-28T12:42:35.414Z,115
2022-11-28T12:43:35.108Z,115
2022-11-28T12:44:35.439Z,115
2022-11-28T12:45:35.788Z,115
2022-11-28T12:46:35.752Z,115
2022-11-28T12:47:35.283Z,115
2022-11-28T12:48:35.048Z,115
2022-11-28T12:49:35.529Z,115
2022-11-28T12:50:35.293Z,110
2022-11-28T12:51:35.488Z,110
2022-11-28T12:52:35.066Z,110
2022-11-28T12:53:35.216Z,110
2022-11-28T12:54:35.368Z,105
2022-11-28T12:55:35.420Z,105
2022-11-28T12:56:35.172Z,100
2022-11-28T12:57:35.823Z,95
2022-11-28T12:58:35.544Z,95
2022-11-28T12:59:35.745Z,90
2022-11-28T13:00:35.800Z,85
2022-11-28T13:01:36.196Z,80
2022-11-28T13:02:36.734Z,75
2022-11-28T13:03:36.274Z,70
2022-11-28T13:04:35.659Z,65
2022-11-28T13:05:34.954Z,60
2022-11-28T13:06:35.620Z,60
2022-11-28T13:07:35.938Z,55
2022-11-28T13:08:35.586Z,55
2022-11-28T13:09:35.559Z,50
2022-11-28T13:10:35.820Z,45
2022-11-28T13:11:35.011Z,45
2022-11-28T13:12:35.763Z,40
2022-11-28T13:13:35.254Z,40
2022-11-28T13:14:35.479Z,35
2022-11-28T13:15:35.344Z,35
2022-11-28T13:16:37.794Z,35
2022-11-28T13:17:35.949Z,40
2022-11-28T13:18:35.839Z,40
2022-11-28T13:19:35.597Z,40
2022-11-28T13:20:35.606Z,40
2022-11-28T13:21:35.810Z,45
2022-11-28T13:22:36.065Z,45
2022-11-28T13:23:35.775Z,45
2022-11-28T13:24:35.764Z,45
2022-11-28T13:25:35.493Z,50
2022-11-28T13:26:35.989Z,50
2022-11-28T13:27:35.727Z,50
2022-11-28T13:28:35.669Z,55
2022-11-28T13:29:35.692Z,55
2022-11-28T13:30:35.911Z,55
2022-11-28T13:31:35.971Z,60
2022-11-28T13:32:35.697Z,60
2022-11-28T13:33:35.656Z,60
2022-11-28T13:34:35.316Z,60
2022-11-28T13:35:35.565Z,60
2022-11-28T13:38:36.858Z,60
2022-11-28T13:39:19.203Z,60
2022-11-28T13:39:47.029Z,55
2022-11-28T13:40:48.543Z,55
2022-11-28T13:43:10.705Z,55
2022-11-28T13:43:20.562Z,55
2022-11-28T13:44:20.508Z,55
2022-11-28T13:45:22.781Z,55
2022-11-28T13:46:20.474Z,55
2022-11-28T13:47:20.480Z,55
2022-11-28T13:48:20.539Z,55
2022-11-28T13:49:28.724Z,55
2022-11-28T13:50:20.391Z,55
2022-11-28T13:51:36.983Z,55
2022-11-28T13:52:20.603Z,55
2022-11-28T13:53:21.705Z,55
2022-11-28T13:54:22.738Z,50
2022-11-28T13:55:22.478Z,50
2022-11-28T13:56:22.163Z,50
2022-11-28T13:57:21.827Z,50
2022-11-28T13:58:20.009Z,50
2022-11-28T13:59:19.988Z,45
2022-11-28T14:00:20.241Z,45
2022-11-28T14:01:20.623Z,45
2022-11-28T14:02:20.699Z,45
2022-11-28T14:03:20.341Z,45
2022-11-28T14:04:20.491Z,45
2022-11-28T14:05:28.782Z,45
2022-11-28T14:06:19.864Z,50
2022-11-28T14:07:20.670Z,50
2022-11-28T14:08:20.399Z,50
2022-11-28T14:09:20.307Z,50
2022-11-28T14:10:20.307Z,45
2022-11-28T14:11:27.774Z,45
2022-11-28T14:12:20.019Z,45
2022-11-28T14:13:20.312Z,45
2022-11-28T14:14:20.426Z,45
2022-11-28T14:15:20.201Z,40
2022-11-28T14:16:20.536Z,40
2022-11-28T14:17:19.913Z,40
2022-11-28T14:19:04.013Z,40
2022-11-28T14:20:20.187Z,40
2022-11-28T14:21:20.285Z,40
2022-11-28T14:22:19.580Z,40
2022-11-28T14:23:19.586Z,35
2022-11-28T14:24:20.057Z,35
2022-11-28T14:25:19.550Z,35
2022-11-28T14:26:19.774Z,35
2022-11-28T14:27:19.498Z,35
2022-11-28T14:28:19.965Z,35
2022-11-28T14:29:20.031Z,30
2022-11-28T14:30:18.939Z,30
2022-11-28T14:31:20.035Z,30
2022-11-28T14:32:49.158Z,30
2022-11-28T14:33:19.379Z,30
2022-11-28T14:34:19.623Z,25
2022-11-28T14:35:19.129Z,25
2022-11-28T14:36:19.938Z,25
2022-11-28T14:37:19.865Z,25
2022-11-28T14:38:25.784Z,25
2022-11-28T14:39:19.804Z,20
2022-11-28T14:40:19.570Z,20
2022-11-28T14:41:19.013Z,20
2022-11-28T14:43:07.423Z,20
2022-11-28T14:43:19.202Z,20
2022-11-28T14:44:19.276Z,15
2022-11-28T14:45:19.262Z,15
2022-11-28T14:46:19.486Z,15
2022-11-28T14:47:19.880Z,15
2022-11-28T14:48:20.061Z,15
2022-11-28T14:49:19.352Z,15
2022-11-28T14:50:19.093Z,10
2022-11-28T14:51:19.349Z,10
2022-11-28T14:52:48.427Z,10